X  Fermer Données météorologiques d'aviation de Metar     LYNI Nis Airport
Température
46°F Température
39°F Point de rosée
76% Humidité



Vent
12 MPH
19 KM/H
5 M/S
10 KTS



80°
E
Conditions actuelles

Partiellement nuageux Partiellement nuageux
Pression 1023.92 (hPa) - 30.24 (inHg)
Visibilité 6.2 (mile) - 10 (km)
Aéroport
Code de l'aéroport LYNI

Emplacement: Nis Airport
Distance: 63 (mi)

Metar:
LYNI 040600Z 08010KT 9999 FEW020 SCT050 08/04 Q1024 NOSIG

Temps: 04-12-2022 07:00 CET